createdAt,value
2017-10-10T00:05:00.736Z,1014.3
2017-10-10T00:10:06.161Z,1014.3
2017-10-10T00:15:11.596Z,1014.2
2017-10-10T00:20:16.684Z,1014.2
2017-10-10T00:25:21.425Z,1014.3
2017-10-10T00:30:27.205Z,1014.2
2017-10-10T00:35:32.630Z,1014.1
2017-10-10T00:40:37.714Z,1014.1
2017-10-10T00:45:43.154Z,1014
2017-10-10T00:50:49.276Z,1014
2017-10-10T00:55:54.360Z,1014
2017-10-10T01:00:59.449Z,1013.9
2017-10-10T01:06:04.876Z,1013.8
2017-10-10T01:11:09.962Z,1013.7
2017-10-10T01:16:15.390Z,1013.7
2017-10-10T01:21:20.127Z,1013.6
2017-10-10T01:26:24.872Z,1013.6
2017-10-10T01:31:29.953Z,1013.5
2017-10-10T01:36:35.726Z,1013.4
2017-10-10T01:41:40.807Z,1013.4
2017-10-10T01:46:46.576Z,1013.3
2017-10-10T01:51:51.657Z,1013.2
2017-10-10T01:56:56.739Z,1013.2
2017-10-10T02:02:02.165Z,1013.1
2017-10-10T02:07:07.249Z,1013
2017-10-10T02:12:12.342Z,1013
2017-10-10T02:17:17.422Z,1013.1
2017-10-10T02:22:22.496Z,1013
2017-10-10T02:27:27.925Z,1012.9
2017-10-10T02:32:33.449Z,1012.9
2017-10-10T02:37:38.851Z,1012.9
2017-10-10T02:42:44.844Z,1012.9
2017-10-10T02:47:50.333Z,1012.9
2017-10-10T02:52:55.079Z,1012.9
2017-10-10T02:58:00.852Z,1012.9
2017-10-10T03:03:06.970Z,1012.8
2017-10-10T03:08:12.053Z,1012.8
2017-10-10T03:13:17.821Z,1012.8
2017-10-10T03:18:22.904Z,1012.7
2017-10-10T03:23:27.640Z,1012.7
2017-10-10T03:28:33.068Z,1012.7
2017-10-10T03:33:38.151Z,1012.7
2017-10-10T03:38:43.234Z,1012.6
2017-10-10T03:43:48.316Z,1012.6
2017-10-10T03:48:54.087Z,1012.6
2017-10-10T03:53:59.179Z,1012.5
2017-10-10T03:59:04.602Z,1012.5
2017-10-10T04:04:10.369Z,1012.4
2017-10-10T04:09:15.450Z,1012.3
2017-10-10T04:14:20.536Z,1012.2
2017-10-10T04:19:25.626Z,1012.3
2017-10-10T04:24:30.359Z,1012.4
2017-10-10T04:29:35.100Z,1012.3
2017-10-10T04:34:40.873Z,1012.4
2017-10-10T04:39:45.623Z,1012.4
2017-10-10T04:44:51.393Z,1012.3
2017-10-10T04:49:56.481Z,1012.3
2017-10-10T04:55:01.216Z,1012.3
2017-10-10T05:00:07.343Z,1012.4
2017-10-10T05:05:12.778Z,1012.3
2017-10-10T05:10:17.513Z,1012.3
2017-10-10T05:15:22.938Z,1012.3
2017-10-10T05:20:28.043Z,1012.3
2017-10-10T05:25:33.144Z,1012.2
2017-10-10T05:30:38.584Z,1012.2
2017-10-10T05:35:44.009Z,1012.2
2017-10-10T05:40:49.439Z,1012.2
2017-10-10T05:45:54.527Z,1012.2
2017-10-10T05:50:59.613Z,1012.2
2017-10-10T05:56:04.695Z,1012.2
2017-10-10T06:01:09.779Z,1012.1
2017-10-10T06:06:14.534Z,1012.2
2017-10-10T06:11:19.621Z,1012.2
2017-10-10T06:16:24.358Z,1012.2
2017-10-10T06:21:29.103Z,1012.1
2017-10-10T06:26:34.530Z,1012.2
2017-10-10T06:31:39.611Z,1012.2
2017-10-10T06:36:44.352Z,1012.2
2017-10-10T06:41:49.439Z,1012.3
2017-10-10T06:46:55.214Z,1012.4
2017-10-10T06:52:00.639Z,1012.3
2017-10-10T06:57:06.071Z,1012.4
2017-10-10T07:02:11.501Z,1012.4
2017-10-10T07:07:16.930Z,1012.4
2017-10-10T07:12:22.017Z,1012.4
2017-10-10T07:17:26.414Z,1012.5
2017-10-10T07:22:31.498Z,1012.5
2017-10-10T07:27:36.585Z,1012.5
2017-10-10T07:32:42.028Z,1012.5
2017-10-10T07:37:47.802Z,1012.4
2017-10-10T07:42:52.887Z,1012.5
2017-10-10T07:47:57.972Z,1012.4
2017-10-10T07:53:03.058Z,1012.4
2017-10-10T07:58:08.490Z,1012.4
2017-10-10T08:03:13.580Z,1012.4
2017-10-10T08:08:19.367Z,1012.4
2017-10-10T08:13:24.791Z,1012.4
2017-10-10T08:18:30.216Z,1012.5
2017-10-10T08:23:35.299Z,1012.5
2017-10-10T08:28:40.382Z,1012.5
2017-10-10T08:33:46.152Z,1012.5
2017-10-10T08:38:50.899Z,1012.5
2017-10-10T08:43:55.630Z,1012.5
2017-10-10T08:49:01.061Z,1012.4
2017-10-10T08:54:06.148Z,1012.5
2017-10-10T08:59:11.576Z,1012.5
2017-10-10T09:04:16.661Z,1012.4
2017-10-10T09:09:22.086Z,1012.5
2017-10-10T09:14:27.169Z,1012.4
2017-10-10T09:19:31.916Z,1012.4
2017-10-10T09:24:37.698Z,1012.4
2017-10-10T09:29:43.126Z,1012.4
2017-10-10T09:34:47.868Z,1012.4
2017-10-10T09:39:53.640Z,1012.5
2017-10-10T09:44:58.093Z,1012.5
2017-10-10T09:50:02.491Z,1012.5
2017-10-10T09:55:08.266Z,1012.5
2017-10-10T10:00:13.697Z,1012.5
2017-10-10T10:05:18.092Z,1012.6
2017-10-10T10:10:23.177Z,1012.6
2017-10-10T10:15:27.573Z,1012.6
2017-10-10T10:20:33.345Z,1012.5
2017-10-10T10:25:38.086Z,1012.5
2017-10-10T10:30:43.858Z,1012.4
2017-10-10T10:35:48.601Z,1012.5
2017-10-10T10:40:53.841Z,1012.4
2017-10-10T10:45:58.585Z,1012.4
2017-10-10T10:51:04.360Z,1012.4
2017-10-10T10:56:09.444Z,1012.3
2017-10-10T11:01:14.876Z,1012.2
2017-10-10T11:06:20.663Z,1012.1
2017-10-10T11:11:25.409Z,1012.1
2017-10-10T11:16:31.186Z,1012.1
2017-10-10T11:21:35.927Z,1012.1
2017-10-10T11:26:41.704Z,1012.1
2017-10-10T11:31:47.482Z,1012.2
2017-10-10T11:36:52.911Z,1012.2
2017-10-10T11:41:58.688Z,1012.2
2017-10-10T11:47:03.782Z,1012.2
2017-10-10T11:52:09.213Z,1012.2
2017-10-10T11:57:14.298Z,1012.2
2017-10-10T12:02:19.393Z,1012.1
2017-10-10T12:07:25.166Z,1012.2
2017-10-10T12:12:30.250Z,1012.2
2017-10-10T12:17:35.339Z,1012.2
2017-10-10T12:22:40.426Z,1012.2
2017-10-10T12:27:45.857Z,1012
2017-10-10T12:32:50.946Z,1012
2017-10-10T12:37:56.032Z,1012
2017-10-10T12:43:01.462Z,1012
2017-10-10T12:48:07.238Z,1012
2017-10-10T12:53:12.325Z,1012
2017-10-10T12:58:17.068Z,1011.9
2017-10-10T13:03:22.500Z,1011.9
2017-10-10T13:08:27.248Z,1011.8
2017-10-10T13:13:32.329Z,1011.8
2017-10-10T13:18:37.070Z,1011.9
2017-10-10T13:23:41.816Z,1011.9
2017-10-10T13:28:47.249Z,1011.9
2017-10-10T13:33:52.677Z,1012
2017-10-10T13:38:58.162Z,1012
2017-10-10T13:44:03.247Z,1011.9
2017-10-10T13:49:08.679Z,1011.9
2017-10-10T13:54:14.112Z,1011.9
2017-10-10T13:59:19.545Z,1011.8
2017-10-10T14:04:24.978Z,1011.8
2017-10-10T14:09:31.098Z,1011.8
2017-10-10T14:14:36.184Z,1011.8
2017-10-10T14:19:41.957Z,1011.8
2017-10-10T14:24:48.077Z,1011.8
2017-10-10T14:29:52.818Z,1011.7
2017-10-10T14:34:57.560Z,1011.7
2017-10-10T14:40:02.999Z,1011.7
2017-10-10T14:45:08.436Z,1011.7
2017-10-10T14:50:13.867Z,1011.6
2017-10-10T14:55:19.309Z,1011.5
2017-10-10T15:00:24.747Z,1011.6
2017-10-10T15:05:30.541Z,1011.6
2017-10-10T15:10:35.976Z,1011.6
2017-10-10T15:15:40.725Z,1011.5
2017-10-10T15:20:45.479Z,1011.6
2017-10-10T15:25:49.538Z,1011.6
2017-10-10T15:30:54.632Z,1011.6
2017-10-10T15:36:00.103Z,1011.7
2017-10-10T15:41:05.876Z,1011.6
2017-10-10T15:46:11.699Z,1011.6
2017-10-10T15:51:17.169Z,1011.6
2017-10-10T15:56:22.281Z,1011.6
2017-10-10T16:01:27.711Z,1011.6
2017-10-10T16:06:32.859Z,1011.7
2017-10-10T16:11:38.314Z,1011.6
2017-10-10T16:16:43.455Z,1011.7
2017-10-10T16:21:49.253Z,1011.8
2017-10-10T16:26:53.996Z,1011.8
2017-10-10T16:31:59.433Z,1011.8
2017-10-10T16:37:05.552Z,1011.7
2017-10-10T16:42:10.663Z,1011.7
2017-10-10T16:47:15.398Z,1011.8
2017-10-10T16:52:20.832Z,1011.7
2017-10-10T16:57:25.572Z,1011.8
2017-10-10T17:02:31.005Z,1011.8
2017-10-10T17:07:36.093Z,1011.8
2017-10-10T17:12:41.873Z,1011.8
2017-10-10T17:17:47.642Z,1011.8
2017-10-10T17:22:53.536Z,1011.8
2017-10-10T17:27:59.319Z,1011.9
2017-10-10T17:33:04.423Z,1011.9
2017-10-10T17:38:09.165Z,1012
2017-10-10T17:43:14.596Z,1012
2017-10-10T17:48:20.367Z,1012
2017-10-10T17:53:25.810Z,1012
2017-10-10T17:58:30.901Z,1011.9
2017-10-10T18:03:35.990Z,1012
2017-10-10T18:08:40.740Z,1012
2017-10-10T18:13:46.521Z,1012
2017-10-10T18:18:52.310Z,1012.1
2017-10-10T18:23:57.752Z,1012
2017-10-10T18:29:02.506Z,1012.1
2017-10-10T18:34:07.261Z,1012.1
2017-10-10T18:39:13.064Z,1012.1
2017-10-10T18:44:18.167Z,1012.1
2017-10-10T18:49:23.966Z,1012.1
2017-10-10T18:54:29.831Z,1012.1
2017-10-10T18:59:35.712Z,1012.1
2017-10-10T19:04:41.505Z,1012.2
2017-10-10T19:09:46.271Z,1012.1
2017-10-10T19:14:51.747Z,1012.2
2017-10-10T19:19:56.501Z,1012.2
2017-10-10T19:25:01.950Z,1012.2
2017-10-10T19:30:07.057Z,1012.2
2017-10-10T19:35:12.494Z,1012.2
2017-10-10T19:40:17.587Z,1012.2
2017-10-10T19:45:22.680Z,1012.2
2017-10-10T19:50:27.173Z,1012.3
2017-10-10T19:55:32.615Z,1012.3
2017-10-10T20:00:38.058Z,1012.5
2017-10-10T20:05:43.499Z,1012.4
2017-10-10T20:10:48.250Z,1012.5
2017-10-10T20:15:53.799Z,1012.6
2017-10-10T20:20:58.556Z,1012.7
2017-10-10T20:26:03.693Z,1012.6
2017-10-10T20:31:08.456Z,1012.7
2017-10-10T20:36:13.551Z,1012.8
2017-10-10T20:41:18.313Z,1012.8
2017-10-10T20:46:23.750Z,1012.9
2017-10-10T20:51:28.593Z,1012.9
2017-10-10T20:56:34.025Z,1012.9
2017-10-10T21:01:38.770Z,1012.9
2017-10-10T21:06:43.509Z,1012.9
2017-10-10T21:11:48.607Z,1012.8
2017-10-10T21:16:53.693Z,1012.8
2017-10-10T21:21:58.795Z,1012.8
2017-10-10T21:27:04.227Z,1012.8
2017-10-10T21:32:09.318Z,1012.8
2017-10-10T21:37:15.090Z,1012.8
2017-10-10T21:42:20.520Z,1012.7
2017-10-10T21:47:25.261Z,1012.7
2017-10-10T21:52:29.313Z,1012.8
2017-10-10T21:57:35.096Z,1012.7
2017-10-10T22:02:40.532Z,1012.7
2017-10-10T22:07:45.618Z,1012.6
2017-10-10T22:12:51.044Z,1012.6
2017-10-10T22:17:55.838Z,1012.6
2017-10-10T22:23:01.970Z,1012.6
2017-10-10T22:28:07.743Z,1012.6
2017-10-10T22:33:12.828Z,1012.5
2017-10-10T22:38:18.277Z,1012.5
2017-10-10T22:43:24.037Z,1012.5
2017-10-10T22:48:29.124Z,1012.5
2017-10-10T22:53:34.553Z,1012.6
2017-10-10T22:58:39.659Z,1012.4
2017-10-10T23:03:45.094Z,1012.4
2017-10-10T23:08:49.503Z,1012.4
2017-10-10T23:13:54.943Z,1012.5
2017-10-10T23:19:00.027Z,1012.4
2017-10-10T23:24:04.765Z,1012.5
2017-10-10T23:29:09.860Z,1012.5
2017-10-10T23:34:15.635Z,1012.5
2017-10-10T23:39:21.410Z,1012.5
2017-10-10T23:44:26.840Z,1012.5
2017-10-10T23:49:32.959Z,1012.4
2017-10-10T23:54:38.734Z,1012.3
2017-10-10T23:59:43.477Z,1012.4
